YM Venus — 9HCB8 — position and weather

sailwx.info

Track history (hours):
 
Tides and Currents Weather Stations Pressure Air Temp Water Temp Dewpoint Dewpoint Depression Visibility Wind Speed Wind Dir Waves Ship Positions

YM Venus

Last reported at 2017-Jun-16 13:31 UTC. Time now 2017-Jun-25 12:16 UTC.
Position N 37°07' E 015°50'.
Warning: this ship's position is 8 days out of date.

Length 105 m; draft 5 m.

Type: Tanker. MMSI: 215826000.

Date/timePositionNaut miles runAvg speedWind from/ knotsBaromVisibWave heightAir tempDewpointWater temp
2017-Jun-16 13:31N 37°07' E 015°50'612.3
2017-Jun-16 13:00N 37°06' E 015°58'612.1
2017-Jun-16 12:29N 37°04' E 016°05'612.0
2017-Jun-16 12:00N 37°03' E 016°13'36310.6
2017-Jun-15 01:56N 36°52' E 023°46'512.3
2017-Jun-15 01:31N 36°57' E 023°49'  
2017-Jun-09 18:49N 37°35' E 023°53'412.0
2017-Jun-09 18:30N 37°37' E 023°48'611.8
2017-Jun-09 18:00N 37°40' E 023°43'612.5
2017-Jun-09 17:30N 37°46' E 023°39'612.2
2017-Jun-09 17:01N 37°51' E 023°36'510.9
2017-Jun-09 16:31N 37°57' E 023°36'4 7.7
2017-Jun-09 16:00N 38°00' E 023°34'1 0.1
2017-Jun-09 07:38N 38°00' E 023°35'0 0.0
2017-Jun-09 07:31N 38°00' E 023°35'0 0.1
2017-Jun-09 07:00N 38°00' E 023°35'2 4.2
2017-Jun-09 06:30N 37°59' E 023°33'4 8.1
2017-Jun-09 06:00N 37°56' E 023°36'3 6.0
2017-Jun-09 05:30N 37°53' E 023°38'4 7.5
2017-Jun-09 05:00N 37°50' E 023°40'4 8.3
2017-Jun-09 04:30N 37°46' E 023°42'4 8.6
2017-Jun-09 04:00N 37°42' E 023°45'4 8.4
2017-Jun-09 03:30N 37°38' E 023°46'4 8.6
2017-Jun-09 03:00N 37°34' E 023°46'  
Track history (hours):
 
Tides and Currents Weather Stations Pressure Air Temp Water Temp Dewpoint Dewpoint Depression Visibility Wind Speed Wind Dir Waves Ship Positions

YM Venus

Last reported at 2017-Jun-16 13:31 UTC. Time now 2017-Jun-25 12:16 UTC.
Position N 37°07' E 015°50'.
Warning: this ship's position is 8 days out of date.

Length 105 m; draft 5 m.

Type: Tanker. MMSI: 215826000.

Date/timePositionNaut miles runAvg speedWind from/ knotsBaromVisibWave heightAir tempDewpointWater temp
2017-Jun-16 13:31N 37°07' E 015°50'612.3
2017-Jun-16 13:00N 37°06' E 015°58'612.1
2017-Jun-16 12:29N 37°04' E 016°05'612.0
2017-Jun-16 12:00N 37°03' E 016°13'36310.6
2017-Jun-15 01:56N 36°52' E 023°46'512.3
2017-Jun-15 01:31N 36°57' E 023°49'  
2017-Jun-09 18:49N 37°35' E 023°53'412.0
2017-Jun-09 18:30N 37°37' E 023°48'611.8
2017-Jun-09 18:00N 37°40' E 023°43'612.5
2017-Jun-09 17:30N 37°46' E 023°39'612.2
2017-Jun-09 17:01N 37°51' E 023°36'510.9
2017-Jun-09 16:31N 37°57' E 023°36'4 7.7
2017-Jun-09 16:00N 38°00' E 023°34'1 0.1
2017-Jun-09 07:38N 38°00' E 023°35'0 0.0
2017-Jun-09 07:31N 38°00' E 023°35'0 0.1
2017-Jun-09 07:00N 38°00' E 023°35'2 4.2
2017-Jun-09 06:30N 37°59' E 023°33'4 8.1
2017-Jun-09 06:00N 37°56' E 023°36'3 6.0
2017-Jun-09 05:30N 37°53' E 023°38'4 7.5
2017-Jun-09 05:00N 37°50' E 023°40'4 8.3
2017-Jun-09 04:30N 37°46' E 023°42'4 8.6
2017-Jun-09 04:00N 37°42' E 023°45'4 8.4
2017-Jun-09 03:30N 37°38' E 023°46'4 8.6
2017-Jun-09 03:00N 37°34' E 023°46'  

Dump ship's entire track history